Portada
METAR-TAF:

METAR-TAF

Aeropuertos :

Aeropuerto Internacional de Salt Lake City

Salt Lake City, Utah, Estados Unidos

latitud: 40-46-41N, longitud: 111-58-10W, altitud: 1288 m

Observación

El informe se hizo hace 14 minutos, a las 16:54 UTC
Viento calma
Temperatura 16°C
Humedad 25%
Presión 1024 hPa
Visibilidad: 16.1 km
Cielo despejado

METAR: KSLC 251654Z 00000KT 10SM CLR 16/M04 A3024 RMK AO2 SLP210 T01611044

Hora: 11:08 (17:08 UTC)

Pronóstico

El informe se hizo hace 2 horas y 9 minutos, a las 14:59 UTC
Pronóstico válido del 25 a las 15 UTC al 26 a las 18 UTC
Viento 4 kt del noroeste
Visibilidad: 10 km
Cielo despejado
A partir de las 25 a las 1900 UTC
Viento 9 kt del norte-noroeste
Visibilidad: 10 km
Cielo despejado
A partir de las 26 a las 0500 UTC
Viento 6 kt del sureste
Visibilidad: 10 km
Cielo despejado

TAF: KSLC 251459Z 2515/2618 32004KT P6SM SKC FM251900 34009KT P6SM SKC FM260500 14006KT P6SM SKC

Observaciones y pronósticos meteorológicos de más de 4000 aeropuertos (mensajes METAR y TAF).

Los puntos amarillos y rojos representan las estaciones disponibles.

Ponga el ratón en el punto deseado para ver el nombre de la estación.

Haga clic para ver las observaciones y los pronósticos meteorológicos.

Para cambiar el mapa : haga clic en los botones verdes con una cruz de color negro para hacer un zoom, en el botón verde con un guión para alejar o en las flechas verdes para mapas adyacentes.


METAR-TAF: